Latest Weather Observations for Mount Keith

IDW60801

Issued at 8:02 pm WST Saturday 28 March 2015 (issued every 30 minutes, with the page automatically refreshed every 10 minutes)

About weather observations | Map of weather stations | Latest weather observations for WA | Other Formats
Station Details ID: 512019 Name: MOUNT KEITH Lat: -27.29 Lon: 120.55 Height: 542.33 m
Data from the previous 72 hours. | See also: Recent months for locations in Western Australia
Date/Time
WST
Temp
°C
App
Temp
°C
Dew
Point
Rel
Hum
%
Delta-T
°C
Wind Press
QNH
hPa
Press
MSL
hPa
Rain
since 9 am
mm
Dir
 
Spd
km/h
Gust
km/h
Spd
kts
Gust
kts
28/08:00pm 24.2 21.7 9.8 40 8.1 SSE 13 15 7 8 1019.0 1015.3 0.0
28/07:30pm 24.7 22.6 9.8 39 8.4 SE 11 15 6 8 1018.4 1014.8 0.0
28/07:00pm 25.7 23.0 9.1 35 9.3 SSE 13 13 7 7 1017.9 1014.3 0.0
28/06:00pm 27.7 24.5 8.6 30 10.7 S 15 20 8 11 1017.3 1013.6 0.0
28/05:30pm 28.6 26.0 7.8 27 11.5 SSW 11 15 6 8 1017.2 1013.5 0.0
28/05:00pm 29.0 26.2 8.7 28 11.4 SSE 13 17 7 9 1016.8 1013.2 0.0
28/04:30pm 28.7 25.7 7.9 27 11.6 S 13 19 7 10 1016.9 1013.3 0.0
28/04:00pm 29.4 26.7 9.0 28 11.6 SSW 13 20 7 11 1016.7 1013.1 0.0
28/03:30pm 28.8 26.2 9.5 30 11.0 SSE 13 20 7 11 1016.8 1013.2 0.0
28/03:00pm 28.8 26.4 10.0 31 10.8 SE 13 20 7 11 1016.8 1013.2 0.0
28/02:30pm 28.7 26.3 9.9 31 10.8 S 13 20 7 11 1017.4 1013.7 0.0
28/02:00pm 28.6 27.2 10.8 33 10.4 S 9 19 5 10 1017.5 1013.8 0.0
28/01:30pm 27.5 25.4 12.3 39 9.0 S 15 22 8 12 1017.7 1014.0 0.0
28/01:00pm 27.6 26.2 10.8 35 9.7 SE 9 15 5 8 1017.8 1014.2 0.0
28/12:30pm 27.7 26.0 12.5 39 9.1 SSE 13 20 7 11 1018.4 1014.8 0.0
28/12:00pm 26.3 25.7 12.4 42 8.2 SSW 7 17 4 9 1019.0 1015.3 0.0
28/11:30am 26.4 26.3 13.9 46 7.6 SSW 7 11 4 6 1019.4 1015.7 0.0
28/11:00am 25.5 25.9 15.2 53 6.3 SSW 7 15 4 8 1019.9 1016.3 0.0
28/10:30am 25.2 25.8 15.8 56 5.8 S 7 17 4 9 1020.2 1016.6 0.0
28/10:00am 24.6 25.2 15.8 58 5.4 NE 7 13 4 7 1020.4 1016.8 0.0
28/09:30am 22.8 22.9 16.4 67 4.0 NNE 11 15 6 8 1020.5 1016.9 0.0
28/09:00am 22.2 22.1 16.0 68 3.8 ENE 11 17 6 9 1020.5 1016.9 0.0
28/08:30am 21.7 21.8 16.4 72 3.3 NE 11 17 6 9 1020.5 1016.9 0.0
28/08:00am 21.0 21.3 16.0 73 3.1 NE 9 13 5 7 1020.3 1016.7 0.0
28/07:30am 19.9 21.8 15.7 77 2.6 CALM 0 0 0 0 1019.9 1016.3 0.0
28/07:00am 17.8 19.3 15.6 87 1.3 NW 2 6 1 3 1019.6 1016.0 0.0
28/06:30am 16.3 16.7 14.8 91 0.9 NW 6 9 3 5 1019.3 1015.6 0.0
28/06:00am 16.0 16.5 14.9 93 0.6 SW 6 7 3 4 1018.8 1015.2 0.0
28/05:30am 16.1 16.9 14.8 92 0.8 SSW 4 7 2 4 1018.5 1014.9 0.0
28/05:00am 16.3 18.0 15.2 93 0.7 CALM 0 0 0 0 1018.5 1014.9 0.0
28/04:30am 16.3 17.5 15.0 92 0.8 SE 2 7 1 4 1018.3 1014.7 0.0
28/04:00am 16.2 16.5 14.9 92 0.8 ESE 7 9 4 5 1018.2 1014.6 0.0
28/03:30am 16.8 18.4 15.0 89 1.1 CALM 0 0 0 0 1018.1 1014.5 0.0
28/03:00am 17.3 18.9 14.9 86 1.4 CALM 0 0 0 0 1018.1 1014.5 0.0
28/02:30am 17.9 18.4 15.5 86 1.4 SSE 7 9 4 5 1018.0 1014.4 0.0
28/02:00am 17.9 18.4 15.0 83 1.7 NNW 6 7 3 4 1018.1 1014.5 0.0
28/01:30am 19.3 19.1 15.8 80 2.1 NNW 11 11 6 6 1018.6 1015.0 0.0
28/01:00am 19.2 19.8 15.7 80 2.1 NW 7 9 4 5 1019.1 1015.4 0.0
28/12:30am 19.4 19.8 15.3 77 2.5 NNW 7 7 4 4 1019.5 1015.9 0.0
28/12:00am 19.5 20.5 15.4 77 2.5 NNW 4 7 2 4 1019.6 1016.0 0.0
 
Date/Time
WST
Temp
°C
App
Temp
°C
Dew
Point
Rel
Hum
%
Delta-T
°C
Wind Press
QNH
hPa
Press
MSL
hPa
Rain
since 9 am
mm
Dir
 
Spd
km/h
Gust
km/h
Spd
kts
Gust
kts
27/11:30pm 20.1 20.1 15.3 74 2.9 NNE 9 11 5 6 1019.6 1016.0 0.0
27/11:00pm 20.2 22.0 15.6 75 2.8 CALM 0 0 0 0 1019.7 1016.1 0.0
27/10:30pm 20.8 22.0 15.8 73 3.1 WNW 4 7 2 4 1019.7 1016.1 0.0
27/10:00pm 20.7 22.5 15.5 72 3.2 CALM 0 0 0 0 1019.9 1016.3 0.0
27/09:30pm 21.3 22.0 15.6 70 3.5 W 6 7 3 4 1019.8 1016.2 0.0
27/09:00pm 21.8 21.9 15.6 68 3.8 NW 9 11 5 6 1019.9 1016.3 0.0
27/08:30pm 22.1 22.5 15.2 65 4.2 NNW 7 11 4 6 1019.7 1016.1 0.0
27/08:00pm 22.4 22.6 15.7 66 4.1 NNW 9 11 5 6 1019.7 1016.1 0.0
27/07:30pm 22.5 23.1 15.8 66 4.1 N 7 9 4 5 1019.4 1015.7 0.0
27/07:00pm 22.7 22.9 15.8 65 4.2 NNW 9 13 5 7 1019.1 1015.4 0.0
27/06:30pm 22.7 22.5 15.8 65 4.3 NNW 11 15 6 8 1018.8 1015.2 0.0
27/06:00pm 23.1 23.2 15.4 62 4.7 NNW 9 13 5 7 1018.7 1015.1 0.0
27/05:30pm 23.5 22.6 15.8 62 4.8 NNW 15 20 8 11 1018.7 1015.1 0.0
27/05:00pm 23.8 22.5 15.8 61 4.9 NNW 17 24 9 13 1018.6 1015.0 0.0
27/04:30pm 24.1 22.1 15.6 59 5.2 N 20 28 11 15 1017.8 1014.2 0.0
27/04:00pm 24.5 22.5 14.9 55 5.9 N 19 24 10 13 1017.7 1014.0 0.0
27/03:30pm 25.3 22.7 13.2 47 7.2 NNW 19 30 10 16 1018.0 1014.4 0.0
27/03:00pm 26.2 23.6 13.3 45 7.7 NNW 19 30 10 16 1018.3 1014.7 0.0
27/02:30pm 25.8 22.6 13.0 45 7.6 NNW 22 33 12 18 1018.8 1015.2 0.0
27/02:00pm 26.0 22.2 12.5 43 8.0 NNW 24 32 13 17 1019.2 1015.5 0.0
27/01:30pm 25.5 21.9 12.0 43 7.9 N 22 30 12 16 1019.3 1015.6 0.0
27/01:00pm 25.9 22.5 11.3 40 8.5 N 20 33 11 18 1019.7 1016.1 0.0
27/12:30pm 26.2 22.4 11.2 39 8.7 N 22 32 12 17 1019.9 1016.3 0.0
27/12:00pm 25.8 22.1 11.6 41 8.3 N 22 35 12 19 1020.5 1016.9 0.0
27/11:30am 24.5 19.5 11.1 43 7.7 N 28 41 15 22 1021.1 1017.4 0.0
27/11:00am 24.2 19.6 11.2 44 7.5 NNE 26 39 14 21 1021.4 1017.8 0.0
27/10:30am 24.1 18.2 10.4 42 7.8 NNE 32 41 17 22 1021.6 1018.0 0.0
27/10:00am 24.5 18.7 10.8 42 7.8 NNE 32 41 17 22 1021.7 1018.1 0.0
27/09:30am 23.8 19.2 11.2 45 7.2 NNE 26 33 14 18 1022.2 1018.6 0.0
27/09:00am 22.8 18.3 11.5 49 6.5 NE 26 33 14 18 1022.1 1018.5 0.0
27/08:30am 21.6 17.8 11.3 52 5.9 NNE 22 30 12 16 1022.3 1018.7 0.0
27/08:00am 20.5 17.7 11.4 56 5.1 NE 17 22 9 12 1022.2 1018.6 0.0
27/07:30am 19.7 16.8 10.9 57 4.9 NE 17 22 9 12 1022.4 1018.8 0.0
27/07:00am 19.2 16.2 10.7 58 4.7 NE 17 20 9 11 1022.1 1018.5 0.0
27/06:30am 19.1 16.0 10.4 57 4.8 NE 17 22 9 12 1022.1 1018.5 0.0
27/06:00am 19.2 16.5 10.2 56 4.9 NE 15 20 8 11 1022.0 1018.4 0.0
27/05:30am 19.4 16.2 9.9 54 5.2 ENE 17 22 9 12 1021.7 1018.1 0.0
27/05:00am 19.4 16.6 9.9 54 5.2 ENE 15 20 8 11 1021.8 1018.2 0.0
27/04:30am 19.4 17.0 9.9 54 5.2 ENE 13 17 7 9 1021.8 1018.2 0.0
27/04:00am 19.2 17.1 9.9 55 5.1 E 11 15 6 8 1021.8 1018.2 0.0
27/03:30am 19.1 17.1 10.1 56 4.9 E 11 15 6 8 1021.9 1018.3 0.0
27/03:00am 18.8 16.9 10.4 58 4.6 E 11 15 6 8 1021.9 1018.3 0.0
27/02:30am 18.9 16.9 10.2 57 4.8 E 11 15 6 8 1022.0 1018.4 0.0
27/02:00am 19.1 16.7 10.1 56 4.9 ESE 13 17 7 9 1022.2 1018.6 0.0
27/01:30am 19.2 16.8 10.2 56 5.0 ESE 13 17 7 9 1022.2 1018.6 0.0
27/01:00am 19.1 17.0 9.9 55 5.0 ESE 11 15 6 8 1022.4 1018.8 0.0
27/12:30am 19.5 17.0 9.7 53 5.4 ESE 13 19 7 10 1022.7 1019.1 0.0
27/12:00am 19.8 17.3 9.7 52 5.5 ESE 13 15 7 8 1022.7 1019.1 0.0
 
Date/Time
WST
Temp
°C
App
Temp
°C
Dew
Point
Rel
Hum
%
Delta-T
°C
Wind Press
QNH
hPa
Press
MSL
hPa
Rain
since 9 am
mm
Dir
 
Spd
km/h
Gust
km/h
Spd
kts
Gust
kts
26/11:30pm 20.0 18.3 9.9 52 5.6 ESE 9 11 5 6 1022.6 1019.0 0.0
26/11:00pm 20.3 18.7 10.1 52 5.6 ESE 9 11 5 6 1022.8 1019.3 0.0
26/10:30pm 19.8 17.8 10.2 54 5.3 ESE 11 15 6 8 1022.7 1019.1 0.0
26/10:00pm 19.9 18.3 10.3 54 5.3 E 9 13 5 7 1023.2 1019.6 0.0
26/09:30pm 20.2 18.5 10.0 52 5.6 SE 9 11 5 6 1023.3 1019.7 0.0
26/09:00pm 20.5 18.5 10.0 51 5.8 SE 11 13 6 7 1023.0 1019.4 0.0
26/08:30pm 20.5 18.8 9.7 50 5.9 ESE 9 11 5 6 1023.3 1019.7 0.0
26/08:00pm 20.1 18.3 9.4 50 5.8 E 9 11 5 6 1023.0 1019.4 0.0
26/07:30pm 20.8 18.9 9.1 47 6.4 ENE 9 11 5 6 1022.8 1019.3 0.0
26/07:00pm 21.7 19.4 8.9 44 7.0 ENE 11 15 6 8 1022.6 1019.0 0.0
26/06:30pm 22.3 19.9 8.8 42 7.4 E 11 15 6 8 1022.8 1019.3 0.0
26/06:00pm 22.8 19.9 8.1 39 7.9 ENE 13 19 7 10 1022.5 1018.9 0.0
26/05:30pm 23.1 19.7 7.6 37 8.3 ENE 15 20 8 11 1022.6 1019.0 0.0
26/05:00pm 23.4 19.7 7.9 37 8.3 E 17 24 9 13 1022.5 1018.9 0.0
26/04:30pm 24.1 20.8 8.1 36 8.7 ENE 15 22 8 12 1022.5 1018.9 0.0
26/04:00pm 24.6 20.9 8.1 35 9.0 E 17 22 9 12 1022.4 1018.8 0.0
26/03:30pm 23.3 19.4 7.0 35 8.7 E 17 24 9 13 1022.3 1018.7 0.0
26/03:00pm 23.8 20.3 7.4 35 8.8 E 15 20 8 11 1022.4 1018.8 0.0
26/02:30pm 23.8 19.3 7.0 34 9.0 E 20 28 11 15 1022.1 1018.5 0.0
26/02:00pm 23.3 19.0 7.0 35 8.6 E 19 28 10 15 1022.5 1018.9 0.0
26/01:30pm 23.1 18.8 7.2 36 8.5 ENE 19 28 10 15 1023.0 1019.4 0.0
26/01:00pm 22.6 18.1 6.8 36 8.3 E 20 33 11 18 1023.4 1019.8 0.0
26/12:30pm 22.2 17.1 6.0 35 8.4 ENE 22 32 12 17 1023.8 1020.2 0.0
26/12:00pm 21.6 16.1 5.9 36 8.1 E 24 32 13 17 1023.8 1020.2 0.0
26/11:30am 20.6 16.2 7.2 42 7.0 E 20 30 11 16 1024.3 1020.7 0.0
26/11:00am 20.1 14.4 5.0 37 7.5 E 24 32 13 17 1024.7 1021.2 0.0
26/10:30am 20.3 15.0 4.8 36 7.8 ENE 22 33 12 18 1025.2 1021.6 0.0
26/10:00am 20.0 14.3 4.9 37 7.5 E 24 33 13 18 1025.3 1021.7 0.0
26/09:30am 19.5 14.5 4.4 37 7.5 E 20 28 11 15 1026.0 1022.4 0.0
26/09:00am 19.5 14.1 4.4 37 7.4 E 22 33 12 18 1025.8 1022.2 0.0
26/08:30am 19.5 14.4 4.0 36 7.6 E 20 28 11 15 1025.8 1022.2 0.0
26/08:00am 19.3 13.8 3.9 36 7.5 E 22 32 12 17 1025.8 1022.2 0.0
26/07:30am 18.7 13.6 4.1 38 7.1 E 20 28 11 15 1025.4 1021.8 0.0
26/07:00am 18.2 14.0 4.0 39 6.9 E 15 20 8 11 1025.2 1021.6 0.0
26/06:30am 17.9 13.3 3.8 39 6.8 E 17 22 9 12 1024.9 1021.3 0.0
26/06:00am 18.0 13.7 3.5 38 6.9 E 15 22 8 12 1024.5 1021.0 0.0
26/05:30am 18.3 13.1 3.4 37 7.2 E 20 32 11 17 1023.7 1020.1 0.0
26/05:00am 18.5 13.5 3.6 37 7.2 E 19 28 10 15 1023.5 1019.9 0.0
26/04:30am 19.0 13.0 3.6 36 7.5 E 24 37 13 20 1023.1 1019.5 0.0
26/04:00am 19.3 14.2 3.9 36 7.5 E 20 30 11 16 1023.1 1019.5 0.0
26/03:30am 19.5 14.7 4.4 37 7.5 E 19 26 10 14 1023.1 1019.5 0.0
26/03:00am 19.7 14.7 4.6 37 7.5 E 20 30 11 16 1023.0 1019.4 0.0
26/02:30am 19.7 15.4 5.4 39 7.2 E 17 22 9 12 1022.7 1019.1 0.0
26/02:00am 19.9 15.7 5.5 39 7.3 E 17 24 9 13 1023.0 1019.4 0.0
26/01:30am 20.1 15.4 6.1 40 7.2 E 20 28 11 15 1022.8 1019.3 0.0
26/01:00am 20.5 15.5 6.4 40 7.3 E 22 32 12 17 1022.8 1019.3 0.0
26/12:30am 20.7 16.2 7.0 41 7.2 E 20 28 11 15 1023.0 1019.4 0.0
26/12:00am 20.4 16.7 8.1 45 6.5 ESE 17 26 9 14 1023.0 1019.4 0.0
 
Date/Time
WST
Temp
°C
App
Temp
°C
Dew
Point
Rel
Hum
%
Delta-T
°C
Wind Press
QNH
hPa
Press
MSL
hPa
Rain
since 9 am
mm
Dir
 
Spd
km/h
Gust
km/h
Spd
kts
Gust
kts
25/11:30pm 20.5 16.9 8.5 46 6.5 ESE 17 20 9 11 1023.1 1019.5 0.0
25/11:00pm 20.7 17.2 8.7 46 6.5 ESE 17 20 9 11 1023.1 1019.5 0.0
25/10:30pm 21.1 17.2 8.7 45 6.7 ESE 19 24 10 13 1023.2 1019.6 0.0
25/10:00pm 20.9 17.4 8.9 46 6.5 ESE 17 20 9 11 1023.1 1019.5 0.0
25/09:30pm 21.1 17.7 9.0 46 6.6 ESE 17 22 9 12 1023.0 1019.4 0.0
25/09:00pm 21.4 18.4 9.3 46 6.6 ESE 15 19 8 10 1023.1 1019.5 0.0
25/08:30pm 21.9 19.2 9.1 44 7.0 SE 13 19 7 10 1023.0 1019.4 0.0

Other Formats:

Comma delimited format used in spreadsheet applications
http://www.bom.gov.au/fwo/IDW60801/IDW60801.99434.axf

JavaScript Object Notation format (JSON) in row-major order
http://www.bom.gov.au/fwo/IDW60801/IDW60801.99434.json